Terminal Aerodrome Forecast
Issued by NWS

Home | Current Version | Previous Version | Text Only | Print | Product List | Glossary On
Versions: 1 2 3 4 5 6 7 8 9 10 11 12 13 14 15
725
FTAK31 PAJN 051724
TAFAYA
TAF
PAYA 051724Z 0518/0618 09007KT P6SM VCSH SCT020 BKN050
     FM052000 11008KT P6SM -RA SCT025 OVC050
     FM052200 10010G20KT 5SM -RA BR BKN025 OVC040 WS020/14035KT
     FM060600 14015G23KT 3SM RA BR SCT008 BKN015 OVC025
      WS020/14050KT
      AMD LTD TO CLD VIS AND WIND 0601/0609=

USA.gov is the U.S. government's official web portal to all federal, state and local government web resources and services.